sensor_id;sensor_type;location;lat;lon;timestamp;P1;durP1;ratioP1;P2;durP2;ratioP2
71626;SDS011;59475;52.464;13.590;2023-04-06T00:00:47;10.02;;;6.10;;
71626;SDS011;59475;52.464;13.590;2023-04-06T00:03:13;11.73;;;6.90;;
71626;SDS011;59475;52.464;13.590;2023-04-06T00:05:39;10.90;;;5.90;;
71626;SDS011;59475;52.464;13.590;2023-04-06T00:08:05;12.55;;;6.20;;
71626;SDS011;59475;52.464;13.590;2023-04-06T00:10:30;9.13;;;5.97;;
71626;SDS011;59475;52.464;13.590;2023-04-06T00:12:56;10.17;;;6.00;;
71626;SDS011;59475;52.464;13.590;2023-04-06T00:15:24;19.88;;;7.85;;
71626;SDS011;59475;52.464;13.590;2023-04-06T00:17:50;13.23;;;7.10;;
71626;SDS011;59475;52.464;13.590;2023-04-06T00:20:16;11.68;;;6.65;;
71626;SDS011;59475;52.464;13.590;2023-04-06T00:22:41;9.60;;;6.40;;
71626;SDS011;59475;52.464;13.590;2023-04-06T00:25:08;10.60;;;5.88;;
71626;SDS011;59475;52.464;13.590;2023-04-06T00:27:35;8.82;;;5.75;;
71626;SDS011;59475;52.464;13.590;2023-04-06T00:30:00;9.47;;;5.10;;
71626;SDS011;59475;52.464;13.590;2023-04-06T00:32:26;8.93;;;6.00;;
71626;SDS011;59475;52.464;13.590;2023-04-06T00:34:54;9.30;;;5.10;;
71626;SDS011;59475;52.464;13.590;2023-04-06T00:37:20;7.97;;;5.50;;
71626;SDS011;59475;52.464;13.590;2023-04-06T00:39:45;9.43;;;5.30;;
71626;SDS011;59475;52.464;13.590;2023-04-06T00:42:11;8.80;;;5.25;;
71626;SDS011;59475;52.464;13.590;2023-04-06T00:44:40;8.90;;;5.10;;
71626;SDS011;59475;52.464;13.590;2023-04-06T00:47:06;7.50;;;5.43;;
71626;SDS011;59475;52.464;13.590;2023-04-06T00:49:33;7.40;;;5.68;;
71626;SDS011;59475;52.464;13.590;2023-04-06T00:51:59;7.50;;;5.40;;
71626;SDS011;59475;52.464;13.590;2023-04-06T00:54:25;9.00;;;5.32;;
71626;SDS011;59475;52.464;13.590;2023-04-06T00:56:50;7.97;;;5.53;;
71626;SDS011;59475;52.464;13.590;2023-04-06T00:59:16;8.73;;;5.70;;
71626;SDS011;59475;52.464;13.590;2023-04-06T01:01:41;10.13;;;5.80;;
71626;SDS011;59475;52.464;13.590;2023-04-06T01:04:07;9.13;;;5.97;;
71626;SDS011;59475;52.464;13.590;2023-04-06T01:06:32;7.87;;;5.33;;
71626;SDS011;59475;52.464;13.590;2023-04-06T01:08:58;7.78;;;6.07;;
71626;SDS011;59475;52.464;13.590;2023-04-06T01:11:23;11.00;;;6.20;;
71626;SDS011;59475;52.464;13.590;2023-04-06T01:13:49;11.93;;;6.77;;
71626;SDS011;59475;52.464;13.590;2023-04-06T01:16:14;12.53;;;6.63;;
71626;SDS011;59475;52.464;13.590;2023-04-06T01:18:40;11.95;;;7.00;;
71626;SDS011;59475;52.464;13.590;2023-04-06T01:21:07;11.38;;;6.25;;
71626;SDS011;59475;52.464;13.590;2023-04-06T01:23:34;8.48;;;6.13;;
71626;SDS011;59475;52.464;13.590;2023-04-06T01:26:00;9.47;;;6.23;;
71626;SDS011;59475;52.464;13.590;2023-04-06T01:28:25;9.10;;;6.30;;
71626;SDS011;59475;52.464;13.590;2023-04-06T01:30:51;8.23;;;6.13;;
71626;SDS011;59475;52.464;13.590;2023-04-06T01:33:16;10.70;;;6.07;;
71626;SDS011;59475;52.464;13.590;2023-04-06T01:35:41;12.60;;;7.17;;
71626;SDS011;59475;52.464;13.590;2023-04-06T01:38:07;18.50;;;8.05;;
71626;SDS011;59475;52.464;13.590;2023-04-06T01:40:32;20.03;;;8.77;;
71626;SDS011;59475;52.464;13.590;2023-04-06T01:42:59;15.20;;;7.63;;
71626;SDS011;59475;52.464;13.590;2023-04-06T01:45:24;15.50;;;7.13;;
71626;SDS011;59475;52.464;13.590;2023-04-06T01:47:50;11.50;;;6.40;;
71626;SDS011;59475;52.464;13.590;2023-04-06T01:50:15;13.48;;;6.90;;
71626;SDS011;59475;52.464;13.590;2023-04-06T01:52:41;12.83;;;6.70;;
71626;SDS011;59475;52.464;13.590;2023-04-06T01:55:06;8.70;;;6.20;;
71626;SDS011;59475;52.464;13.590;2023-04-06T01:57:32;11.60;;;6.20;;
71626;SDS011;59475;52.464;13.590;2023-04-06T01:59:58;10.27;;;5.70;;
71626;SDS011;59475;52.464;13.590;2023-04-06T02:02:23;8.77;;;6.13;;
71626;SDS011;59475;52.464;13.590;2023-04-06T02:04:49;11.90;;;6.17;;
71626;SDS011;59475;52.464;13.590;2023-04-06T02:07:14;9.60;;;6.37;;
71626;SDS011;59475;52.464;13.590;2023-04-06T02:09:41;10.83;;;6.20;;
71626;SDS011;59475;52.464;13.590;2023-04-06T02:12:06;12.10;;;6.53;;
71626;SDS011;59475;52.464;13.590;2023-04-06T02:14:32;11.50;;;7.03;;
71626;SDS011;59475;52.464;13.590;2023-04-06T02:16:58;10.23;;;5.93;;
71626;SDS011;59475;52.464;13.590;2023-04-06T02:19:23;8.90;;;5.83;;
71626;SDS011;59475;52.464;13.590;2023-04-06T02:21:50;10.68;;;5.93;;
71626;SDS011;59475;52.464;13.590;2023-04-06T02:24:15;10.40;;;6.00;;
71626;SDS011;59475;52.464;13.590;2023-04-06T02:26:41;6.95;;;5.28;;
71626;SDS011;59475;52.464;13.590;2023-04-06T02:29:06;7.80;;;5.37;;
71626;SDS011;59475;52.464;13.590;2023-04-06T02:31:32;7.93;;;5.18;;
71626;SDS011;59475;52.464;13.590;2023-04-06T02:33:57;8.83;;;5.23;;
71626;SDS011;59475;52.464;13.590;2023-04-06T02:36:22;7.10;;;5.50;;
71626;SDS011;59475;52.464;13.590;2023-04-06T02:38:48;7.77;;;5.17;;
71626;SDS011;59475;52.464;13.590;2023-04-06T02:41:13;9.73;;;6.37;;
71626;SDS011;59475;52.464;13.590;2023-04-06T02:43:39;10.13;;;6.27;;
71626;SDS011;59475;52.464;13.590;2023-04-06T02:46:05;10.03;;;6.47;;
71626;SDS011;59475;52.464;13.590;2023-04-06T02:48:30;9.47;;;6.50;;
71626;SDS011;59475;52.464;13.590;2023-04-06T02:50:55;10.07;;;6.27;;
71626;SDS011;59475;52.464;13.590;2023-04-06T02:53:21;10.43;;;6.63;;
71626;SDS011;59475;52.464;13.590;2023-04-06T02:55:46;9.83;;;5.90;;
71626;SDS011;59475;52.464;13.590;2023-04-06T02:58:12;15.43;;;6.87;;
71626;SDS011;59475;52.464;13.590;2023-04-06T03:00:37;8.93;;;5.67;;
71626;SDS011;59475;52.464;13.590;2023-04-06T03:03:02;9.13;;;5.73;;
71626;SDS011;59475;52.464;13.590;2023-04-06T03:05:28;9.73;;;5.50;;
71626;SDS011;59475;52.464;13.590;2023-04-06T03:07:54;8.05;;;5.50;;
71626;SDS011;59475;52.464;13.590;2023-04-06T03:10:19;8.93;;;5.93;;
71626;SDS011;59475;52.464;13.590;2023-04-06T03:12:45;8.30;;;5.90;;
71626;SDS011;59475;52.464;13.590;2023-04-06T03:15:10;9.18;;;5.93;;
71626;SDS011;59475;52.464;13.590;2023-04-06T03:17:36;6.73;;;5.23;;
71626;SDS011;59475;52.464;13.590;2023-04-06T03:20:01;10.10;;;5.10;;
71626;SDS011;59475;52.464;13.590;2023-04-06T03:22:28;7.93;;;5.38;;
71626;SDS011;59475;52.464;13.590;2023-04-06T03:24:54;8.48;;;5.80;;
71626;SDS011;59475;52.464;13.590;2023-04-06T03:27:19;7.10;;;5.40;;
71626;SDS011;59475;52.464;13.590;2023-04-06T03:29:44;6.53;;;4.90;;
71626;SDS011;59475;52.464;13.590;2023-04-06T03:32:10;10.05;;;5.53;;
71626;SDS011;59475;52.464;13.590;2023-04-06T03:34:36;9.83;;;6.03;;
71626;SDS011;59475;52.464;13.590;2023-04-06T03:37:01;7.28;;;5.28;;
71626;SDS011;59475;52.464;13.590;2023-04-06T03:39:27;9.13;;;4.97;;
71626;SDS011;59475;52.464;13.590;2023-04-06T03:41:52;7.17;;;5.17;;
71626;SDS011;59475;52.464;13.590;2023-04-06T03:44:18;7.97;;;5.50;;
71626;SDS011;59475;52.464;13.590;2023-04-06T03:46:43;8.18;;;5.65;;
71626;SDS011;59475;52.464;13.590;2023-04-06T03:49:08;9.20;;;5.57;;
71626;SDS011;59475;52.464;13.590;2023-04-06T03:51:34;9.60;;;5.67;;
71626;SDS011;59475;52.464;13.590;2023-04-06T03:54:00;9.05;;;5.57;;
71626;SDS011;59475;52.464;13.590;2023-04-06T03:56:25;9.50;;;5.43;;
71626;SDS011;59475;52.464;13.590;2023-04-06T03:58:51;9.90;;;5.40;;
71626;SDS011;59475;52.464;13.590;2023-04-06T04:01:17;7.43;;;5.60;;
71626;SDS011;59475;52.464;13.590;2023-04-06T04:03:43;7.70;;;5.78;;
71626;SDS011;59475;52.464;13.590;2023-04-06T04:06:08;10.27;;;5.67;;
71626;SDS011;59475;52.464;13.590;2023-04-06T04:08:34;7.67;;;5.57;;
71626;SDS011;59475;52.464;13.590;2023-04-06T04:11:00;8.35;;;5.30;;
71626;SDS011;59475;52.464;13.590;2023-04-06T04:13:26;9.73;;;5.60;;
71626;SDS011;59475;52.464;13.590;2023-04-06T04:15:51;8.97;;;6.00;;
71626;SDS011;59475;52.464;13.590;2023-04-06T04:18:17;9.25;;;5.95;;
71626;SDS011;59475;52.464;13.590;2023-04-06T04:20:43;9.73;;;5.97;;
71626;SDS011;59475;52.464;13.590;2023-04-06T04:23:08;9.73;;;5.90;;
71626;SDS011;59475;52.464;13.590;2023-04-06T04:25:34;8.57;;;5.63;;
71626;SDS011;59475;52.464;13.590;2023-04-06T04:27:59;8.75;;;5.63;;
71626;SDS011;59475;52.464;13.590;2023-04-06T04:30:25;7.70;;;6.43;;
71626;SDS011;59475;52.464;13.590;2023-04-06T04:32:50;9.27;;;5.67;;
71626;SDS011;59475;52.464;13.590;2023-04-06T04:35:16;8.97;;;6.33;;
71626;SDS011;59475;52.464;13.590;2023-04-06T04:37:41;11.37;;;6.50;;
71626;SDS011;59475;52.464;13.590;2023-04-06T04:40:07;7.43;;;5.10;;
71626;SDS011;59475;52.464;13.590;2023-04-06T04:42:33;7.63;;;5.82;;
71626;SDS011;59475;52.464;13.590;2023-04-06T04:44:59;9.15;;;5.93;;
71626;SDS011;59475;52.464;13.590;2023-04-06T04:47:24;8.40;;;6.00;;
71626;SDS011;59475;52.464;13.590;2023-04-06T04:49:50;8.43;;;5.93;;
71626;SDS011;59475;52.464;13.590;2023-04-06T04:52:15;10.00;;;6.20;;
71626;SDS011;59475;52.464;13.590;2023-04-06T04:54:40;10.63;;;6.13;;
71626;SDS011;59475;52.464;13.590;2023-04-06T04:57:06;9.13;;;6.10;;
71626;SDS011;59475;52.464;13.590;2023-04-06T04:59:32;8.13;;;6.03;;
71626;SDS011;59475;52.464;13.590;2023-04-06T05:01:57;11.27;;;6.28;;
71626;SDS011;59475;52.464;13.590;2023-04-06T05:04:23;10.27;;;5.97;;
71626;SDS011;59475;52.464;13.590;2023-04-06T05:06:48;10.93;;;6.03;;
71626;SDS011;59475;52.464;13.590;2023-04-06T05:09:14;8.10;;;6.07;;
71626;SDS011;59475;52.464;13.590;2023-04-06T05:11:40;7.50;;;5.93;;
71626;SDS011;59475;52.464;13.590;2023-04-06T05:14:05;11.70;;;6.73;;
71626;SDS011;59475;52.464;13.590;2023-04-06T05:16:31;10.30;;;6.87;;
71626;SDS011;59475;52.464;13.590;2023-04-06T05:18:57;11.48;;;7.45;;
71626;SDS011;59475;52.464;13.590;2023-04-06T05:21:23;9.20;;;6.90;;
71626;SDS011;59475;52.464;13.590;2023-04-06T05:23:48;9.57;;;6.93;;
71626;SDS011;59475;52.464;13.590;2023-04-06T05:26:14;11.23;;;8.07;;
71626;SDS011;59475;52.464;13.590;2023-04-06T05:28:39;12.47;;;8.10;;
71626;SDS011;59475;52.464;13.590;2023-04-06T05:31:07;10.13;;;8.00;;
71626;SDS011;59475;52.464;13.590;2023-04-06T05:33:33;11.87;;;7.73;;
71626;SDS011;59475;52.464;13.590;2023-04-06T05:35:58;14.73;;;8.15;;
71626;SDS011;59475;52.464;13.590;2023-04-06T05:38:25;9.80;;;8.00;;
71626;SDS011;59475;52.464;13.590;2023-04-06T05:40:51;10.90;;;7.53;;
71626;SDS011;59475;52.464;13.590;2023-04-06T05:43:16;14.93;;;8.23;;
71626;SDS011;59475;52.464;13.590;2023-04-06T05:45:46;13.50;;;8.67;;
71626;SDS011;59475;52.464;13.590;2023-04-06T05:48:11;13.18;;;9.02;;
71626;SDS011;59475;52.464;13.590;2023-04-06T05:50:37;15.30;;;10.13;;
71626;SDS011;59475;52.464;13.590;2023-04-06T05:53:02;13.13;;;8.93;;
71626;SDS011;59475;52.464;13.590;2023-04-06T05:55:27;15.63;;;9.13;;
71626;SDS011;59475;52.464;13.590;2023-04-06T05:57:53;13.43;;;9.17;;
71626;SDS011;59475;52.464;13.590;2023-04-06T06:00:18;12.10;;;8.10;;
71626;SDS011;59475;52.464;13.590;2023-04-06T06:02:44;12.50;;;8.43;;
71626;SDS011;59475;52.464;13.590;2023-04-06T06:05:10;14.53;;;8.33;;
71626;SDS011;59475;52.464;13.590;2023-04-06T06:07:35;13.25;;;8.05;;
71626;SDS011;59475;52.464;13.590;2023-04-06T06:10:01;10.30;;;7.07;;
71626;SDS011;59475;52.464;13.590;2023-04-06T06:12:27;12.13;;;7.10;;
71626;SDS011;59475;52.464;13.590;2023-04-06T06:14:53;12.80;;;7.47;;
71626;SDS011;59475;52.464;13.590;2023-04-06T06:17:19;15.27;;;7.60;;
71626;SDS011;59475;52.464;13.590;2023-04-06T06:19:44;9.87;;;6.40;;
71626;SDS011;59475;52.464;13.590;2023-04-06T06:22:11;13.77;;;7.40;;
71626;SDS011;59475;52.464;13.590;2023-04-06T06:24:36;9.60;;;6.43;;
71626;SDS011;59475;52.464;13.590;2023-04-06T06:27:02;11.20;;;6.53;;
71626;SDS011;59475;52.464;13.590;2023-04-06T06:29:27;10.37;;;6.93;;
71626;SDS011;59475;52.464;13.590;2023-04-06T06:31:53;9.48;;;5.97;;
71626;SDS011;59475;52.464;13.590;2023-04-06T06:34:18;8.33;;;5.77;;
71626;SDS011;59475;52.464;13.590;2023-04-06T06:36:43;8.47;;;5.10;;
71626;SDS011;59475;52.464;13.590;2023-04-06T06:39:09;5.87;;;4.87;;
71626;SDS011;59475;52.464;13.590;2023-04-06T06:41:35;8.38;;;5.22;;
71626;SDS011;59475;52.464;13.590;2023-04-06T06:44:00;8.27;;;5.53;;
71626;SDS011;59475;52.464;13.590;2023-04-06T06:46:26;7.50;;;4.57;;
71626;SDS011;59475;52.464;13.590;2023-04-06T06:48:51;7.43;;;4.70;;
71626;SDS011;59475;52.464;13.590;2023-04-06T06:51:17;7.03;;;4.30;;
71626;SDS011;59475;52.464;13.590;2023-04-06T06:53:42;7.00;;;4.80;;
71626;SDS011;59475;52.464;13.590;2023-04-06T06:56:08;4.35;;;3.80;;
71626;SDS011;59475;52.464;13.590;2023-04-06T06:58:33;7.47;;;3.60;;
71626;SDS011;59475;52.464;13.590;2023-04-06T07:00:59;4.57;;;3.70;;
71626;SDS011;59475;52.464;13.590;2023-04-06T07:03:25;7.18;;;3.70;;
71626;SDS011;59475;52.464;13.590;2023-04-06T07:05:50;6.40;;;4.00;;
71626;SDS011;59475;52.464;13.590;2023-04-06T07:08:19;7.47;;;3.97;;
71626;SDS011;59475;52.464;13.590;2023-04-06T07:10:46;4.65;;;3.50;;
71626;SDS011;59475;52.464;13.590;2023-04-06T07:13:11;5.60;;;4.13;;
71626;SDS011;59475;52.464;13.590;2023-04-06T07:15:37;6.50;;;4.10;;
71626;SDS011;59475;52.464;13.590;2023-04-06T07:18:02;5.88;;;4.00;;
71626;SDS011;59475;52.464;13.590;2023-04-06T07:20:28;5.63;;;4.03;;
71626;SDS011;59475;52.464;13.590;2023-04-06T07:22:53;5.83;;;4.00;;
71626;SDS011;59475;52.464;13.590;2023-04-06T07:25:19;7.05;;;4.45;;
71626;SDS011;59475;52.464;13.590;2023-04-06T07:27:45;6.30;;;4.07;;
71626;SDS011;59475;52.464;13.590;2023-04-06T07:30:11;7.13;;;4.20;;
71626;SDS011;59475;52.464;13.590;2023-04-06T07:32:36;7.40;;;3.97;;
71626;SDS011;59475;52.464;13.590;2023-04-06T07:35:02;8.63;;;3.90;;
71626;SDS011;59475;52.464;13.590;2023-04-06T07:37:28;6.50;;;4.25;;
71626;SDS011;59475;52.464;13.590;2023-04-06T07:39:56;6.33;;;4.07;;
71626;SDS011;59475;52.464;13.590;2023-04-06T07:42:21;6.68;;;4.18;;
71626;SDS011;59475;52.464;13.590;2023-04-06T07:44:47;6.47;;;4.27;;
71626;SDS011;59475;52.464;13.590;2023-04-06T07:47:13;5.82;;;3.58;;
71626;SDS011;59475;52.464;13.590;2023-04-06T07:49:39;4.90;;;3.37;;
71626;SDS011;59475;52.464;13.590;2023-04-06T07:52:05;6.60;;;3.55;;
71626;SDS011;59475;52.464;13.590;2023-04-06T07:54:31;5.10;;;3.33;;
71626;SDS011;59475;52.464;13.590;2023-04-06T07:56:56;4.88;;;3.40;;
71626;SDS011;59475;52.464;13.590;2023-04-06T07:59:22;6.07;;;3.67;;
71626;SDS011;59475;52.464;13.590;2023-04-06T08:01:47;5.07;;;3.30;;
71626;SDS011;59475;52.464;13.590;2023-04-06T08:04:13;4.40;;;2.77;;
71626;SDS011;59475;52.464;13.590;2023-04-06T08:06:39;4.40;;;3.20;;
71626;SDS011;59475;52.464;13.590;2023-04-06T08:09:06;3.83;;;3.07;;
71626;SDS011;59475;52.464;13.590;2023-04-06T08:11:31;5.38;;;3.42;;
71626;SDS011;59475;52.464;13.590;2023-04-06T08:13:57;6.40;;;3.13;;
71626;SDS011;59475;52.464;13.590;2023-04-06T08:16:23;5.47;;;2.97;;
71626;SDS011;59475;52.464;13.590;2023-04-06T08:18:49;5.78;;;2.67;;
71626;SDS011;59475;52.464;13.590;2023-04-06T08:21:14;5.40;;;2.73;;
71626;SDS011;59475;52.464;13.590;2023-04-06T08:23:40;4.93;;;2.85;;
71626;SDS011;59475;52.464;13.590;2023-04-06T08:26:05;3.97;;;2.50;;
71626;SDS011;59475;52.464;13.590;2023-04-06T08:28:31;3.77;;;2.43;;
71626;SDS011;59475;52.464;13.590;2023-04-06T08:30:57;5.35;;;2.47;;
71626;SDS011;59475;52.464;13.590;2023-04-06T08:33:22;3.97;;;2.83;;
71626;SDS011;59475;52.464;13.590;2023-04-06T08:35:48;4.75;;;2.75;;
71626;SDS011;59475;52.464;13.590;2023-04-06T08:38:13;4.00;;;2.70;;
71626;SDS011;59475;52.464;13.590;2023-04-06T08:40:39;3.57;;;2.57;;
71626;SDS011;59475;52.464;13.590;2023-04-06T08:43:09;3.90;;;2.60;;
71626;SDS011;59475;52.464;13.590;2023-04-06T08:45:38;4.32;;;3.10;;
71626;SDS011;59475;52.464;13.590;2023-04-06T08:48:05;3.50;;;2.60;;
71626;SDS011;59475;52.464;13.590;2023-04-06T08:50:32;3.40;;;2.58;;
71626;SDS011;59475;52.464;13.590;2023-04-06T08:52:58;3.75;;;2.85;;
71626;SDS011;59475;52.464;13.590;2023-04-06T08:55:24;3.85;;;2.45;;
71626;SDS011;59475;52.464;13.590;2023-04-06T08:57:50;8.20;;;2.87;;
71626;SDS011;59475;52.464;13.590;2023-04-06T09:00:19;3.92;;;2.53;;
71626;SDS011;59475;52.464;13.590;2023-04-06T09:02:45;3.78;;;2.47;;
71626;SDS011;59475;52.464;13.590;2023-04-06T09:05:11;4.10;;;2.70;;
71626;SDS011;59475;52.464;13.590;2023-04-06T09:07:37;5.75;;;2.70;;
71626;SDS011;59475;52.464;13.590;2023-04-06T09:10:04;3.92;;;2.38;;
71626;SDS011;59475;52.464;13.590;2023-04-06T09:12:31;4.32;;;2.47;;
71626;SDS011;59475;52.464;13.590;2023-04-06T09:14:57;4.70;;;2.23;;
71626;SDS011;59475;52.464;13.590;2023-04-06T09:17:30;2.92;;;2.22;;
71626;SDS011;59475;52.464;13.590;2023-04-06T09:19:58;4.97;;;2.10;;
71626;SDS011;59475;52.464;13.590;2023-04-06T09:22:25;3.53;;;2.38;;
71626;SDS011;59475;52.464;13.590;2023-04-06T09:24:53;3.78;;;2.40;;
71626;SDS011;59475;52.464;13.590;2023-04-06T09:27:35;2.47;;;2.13;;
71626;SDS011;59475;52.464;13.590;2023-04-06T09:30:10;2.05;;;1.73;;
71626;SDS011;59475;52.464;13.590;2023-04-06T09:32:48;2.55;;;1.92;;
71626;SDS011;59475;52.464;13.590;2023-04-06T09:35:14;4.05;;;1.92;;
71626;SDS011;59475;52.464;13.590;2023-04-06T09:37:41;4.27;;;1.70;;
71626;SDS011;59475;52.464;13.590;2023-04-06T09:40:07;6.55;;;2.30;;
71626;SDS011;59475;52.464;13.590;2023-04-06T09:42:34;3.92;;;2.40;;
71626;SDS011;59475;52.464;13.590;2023-04-06T09:45:00;2.53;;;1.75;;
71626;SDS011;59475;52.464;13.590;2023-04-06T09:47:26;4.35;;;2.22;;
71626;SDS011;59475;52.464;13.590;2023-04-06T09:49:56;2.87;;;1.70;;
71626;SDS011;59475;52.464;13.590;2023-04-06T09:52:26;2.35;;;2.10;;
71626;SDS011;59475;52.464;13.590;2023-04-06T09:54:59;5.85;;;2.15;;
71626;SDS011;59475;52.464;13.590;2023-04-06T09:57:32;3.17;;;2.15;;
71626;SDS011;59475;52.464;13.590;2023-04-06T10:00:03;5.03;;;2.40;;
71626;SDS011;59475;52.464;13.590;2023-04-06T10:05:33;4.47;;;1.88;;
71626;SDS011;59475;52.464;13.590;2023-04-06T10:08:10;2.72;;;1.92;;
71626;SDS011;59475;52.464;13.590;2023-04-06T10:10:37;2.78;;;1.70;;
71626;SDS011;59475;52.464;13.590;2023-04-06T10:13:03;3.70;;;1.97;;
71626;SDS011;59475;52.464;13.590;2023-04-06T10:15:29;3.95;;;1.80;;
71626;SDS011;59475;52.464;13.590;2023-04-06T10:17:56;2.92;;;1.70;;
71626;SDS011;59475;52.464;13.590;2023-04-06T10:20:30;3.15;;;2.20;;
71626;SDS011;59475;52.464;13.590;2023-04-06T10:25:51;2.63;;;1.85;;
71626;SDS011;59475;52.464;13.590;2023-04-06T10:28:19;3.22;;;2.00;;
71626;SDS011;59475;52.464;13.590;2023-04-06T10:30:45;2.33;;;1.70;;
71626;SDS011;59475;52.464;13.590;2023-04-06T10:33:17;2.80;;;2.10;;
71626;SDS011;59475;52.464;13.590;2023-04-06T10:35:45;3.85;;;1.90;;
71626;SDS011;59475;52.464;13.590;2023-04-06T10:38:11;4.78;;;1.92;;
71626;SDS011;59475;52.464;13.590;2023-04-06T10:40:39;3.78;;;2.10;;
71626;SDS011;59475;52.464;13.590;2023-04-06T10:43:11;3.10;;;1.97;;
71626;SDS011;59475;52.464;13.590;2023-04-06T10:45:38;3.38;;;2.17;;
71626;SDS011;59475;52.464;13.590;2023-04-06T10:48:17;3.15;;;2.15;;
71626;SDS011;59475;52.464;13.590;2023-04-06T10:50:51;2.80;;;2.13;;
71626;SDS011;59475;52.464;13.590;2023-04-06T10:53:24;3.50;;;2.10;;
71626;SDS011;59475;52.464;13.590;2023-04-06T10:55:51;3.00;;;1.90;;
71626;SDS011;59475;52.464;13.590;2023-04-06T10:58:18;2.97;;;1.90;;
71626;SDS011;59475;52.464;13.590;2023-04-06T11:00:45;3.42;;;2.33;;
71626;SDS011;59475;52.464;13.590;2023-04-06T11:03:11;2.85;;;1.92;;
71626;SDS011;59475;52.464;13.590;2023-04-06T11:05:36;3.87;;;2.30;;
71626;SDS011;59475;52.464;13.590;2023-04-06T11:08:02;2.90;;;2.47;;
71626;SDS011;59475;52.464;13.590;2023-04-06T11:10:27;6.75;;;2.30;;
71626;SDS011;59475;52.464;13.590;2023-04-06T11:12:55;4.50;;;2.30;;
71626;SDS011;59475;52.464;13.590;2023-04-06T11:15:21;2.95;;;1.90;;
71626;SDS011;59475;52.464;13.590;2023-04-06T11:17:46;3.55;;;1.95;;
71626;SDS011;59475;52.464;13.590;2023-04-06T11:20:12;3.73;;;2.07;;
71626;SDS011;59475;52.464;13.590;2023-04-06T11:22:50;3.00;;;1.95;;
71626;SDS011;59475;52.464;13.590;2023-04-06T11:25:16;3.00;;;2.30;;
71626;SDS011;59475;52.464;13.590;2023-04-06T11:27:42;4.35;;;2.15;;
71626;SDS011;59475;52.464;13.590;2023-04-06T11:30:08;3.00;;;1.80;;
71626;SDS011;59475;52.464;13.590;2023-04-06T11:32:41;5.53;;;2.20;;
71626;SDS011;59475;52.464;13.590;2023-04-06T11:35:29;3.40;;;1.97;;
71626;SDS011;59475;52.464;13.590;2023-04-06T11:37:56;3.25;;;2.40;;
71626;SDS011;59475;52.464;13.590;2023-04-06T11:40:21;3.27;;;2.00;;
71626;SDS011;59475;52.464;13.590;2023-04-06T11:42:56;5.40;;;2.20;;
71626;SDS011;59475;52.464;13.590;2023-04-06T11:45:22;2.30;;;2.10;;
71626;SDS011;59475;52.464;13.590;2023-04-06T11:47:57;2.90;;;1.95;;
71626;SDS011;59475;52.464;13.590;2023-04-06T11:50:25;4.38;;;2.10;;
71626;SDS011;59475;52.464;13.590;2023-04-06T11:52:58;3.40;;;2.07;;
71626;SDS011;59475;52.464;13.590;2023-04-06T11:55:26;3.08;;;1.95;;
71626;SDS011;59475;52.464;13.590;2023-04-06T11:57:53;2.42;;;2.08;;
71626;SDS011;59475;52.464;13.590;2023-04-06T12:00:20;2.88;;;1.90;;
71626;SDS011;59475;52.464;13.590;2023-04-06T12:02:48;4.47;;;2.37;;
71626;SDS011;59475;52.464;13.590;2023-04-06T12:05:14;4.40;;;2.63;;
71626;SDS011;59475;52.464;13.590;2023-04-06T12:07:39;3.35;;;2.08;;
71626;SDS011;59475;52.464;13.590;2023-04-06T12:10:05;2.90;;;2.30;;
71626;SDS011;59475;52.464;13.590;2023-04-06T12:12:31;4.50;;;2.10;;
71626;SDS011;59475;52.464;13.590;2023-04-06T12:14:57;2.33;;;2.03;;
71626;SDS011;59475;52.464;13.590;2023-04-06T12:17:22;4.80;;;2.53;;
71626;SDS011;59475;52.464;13.590;2023-04-06T12:19:48;2.70;;;1.70;;
71626;SDS011;59475;52.464;13.590;2023-04-06T12:22:13;2.47;;;2.00;;
71626;SDS011;59475;52.464;13.590;2023-04-06T12:24:39;3.17;;;1.85;;
71626;SDS011;59475;52.464;13.590;2023-04-06T12:27:04;2.50;;;1.80;;
71626;SDS011;59475;52.464;13.590;2023-04-06T12:29:30;6.20;;;2.20;;
71626;SDS011;59475;52.464;13.590;2023-04-06T12:31:56;4.00;;;2.10;;
71626;SDS011;59475;52.464;13.590;2023-04-06T12:34:21;3.23;;;2.17;;
71626;SDS011;59475;52.464;13.590;2023-04-06T12:36:47;3.13;;;1.93;;
71626;SDS011;59475;52.464;13.590;2023-04-06T12:39:12;8.32;;;3.13;;
71626;SDS011;59475;52.464;13.590;2023-04-06T12:41:37;3.50;;;2.10;;
71626;SDS011;59475;52.464;13.590;2023-04-06T12:44:06;4.20;;;2.45;;
71626;SDS011;59475;52.464;13.590;2023-04-06T12:46:32;3.13;;;2.27;;
71626;SDS011;59475;52.464;13.590;2023-04-06T12:48:58;4.13;;;2.47;;
71626;SDS011;59475;52.464;13.590;2023-04-06T12:51:24;3.08;;;2.03;;
71626;SDS011;59475;52.464;13.590;2023-04-06T12:53:52;2.83;;;2.30;;
71626;SDS011;59475;52.464;13.590;2023-04-06T12:56:18;2.60;;;1.97;;
71626;SDS011;59475;52.464;13.590;2023-04-06T12:58:43;3.17;;;2.13;;
71626;SDS011;59475;52.464;13.590;2023-04-06T13:01:10;3.25;;;2.22;;
71626;SDS011;59475;52.464;13.590;2023-04-06T13:03:37;3.40;;;2.22;;
71626;SDS011;59475;52.464;13.590;2023-04-06T13:06:03;3.73;;;2.40;;
71626;SDS011;59475;52.464;13.590;2023-04-06T13:08:29;5.18;;;2.38;;
71626;SDS011;59475;52.464;13.590;2023-04-06T13:10:54;3.10;;;1.90;;
71626;SDS011;59475;52.464;13.590;2023-04-06T13:13:28;3.00;;;1.88;;
71626;SDS011;59475;52.464;13.590;2023-04-06T13:15:55;2.78;;;2.03;;
71626;SDS011;59475;52.464;13.590;2023-04-06T13:18:29;4.47;;;2.77;;
71626;SDS011;59475;52.464;13.590;2023-04-06T13:20:55;2.40;;;1.88;;
71626;SDS011;59475;52.464;13.590;2023-04-06T13:23:21;3.03;;;2.20;;
71626;SDS011;59475;52.464;13.590;2023-04-06T13:25:47;3.22;;;2.05;;
71626;SDS011;59475;52.464;13.590;2023-04-06T13:28:13;2.63;;;2.33;;
71626;SDS011;59475;52.464;13.590;2023-04-06T13:30:38;2.00;;;1.80;;
71626;SDS011;59475;52.464;13.590;2023-04-06T13:33:04;3.10;;;1.80;;
71626;SDS011;59475;52.464;13.590;2023-04-06T13:35:31;4.68;;;2.20;;
71626;SDS011;59475;52.464;13.590;2023-04-06T13:37:57;2.33;;;1.70;;
71626;SDS011;59475;52.464;13.590;2023-04-06T13:40:22;4.10;;;2.40;;
71626;SDS011;59475;52.464;13.590;2023-04-06T13:42:48;3.40;;;1.90;;
71626;SDS011;59475;52.464;13.590;2023-04-06T13:45:13;3.73;;;2.03;;
71626;SDS011;59475;52.464;13.590;2023-04-06T13:47:38;2.43;;;2.23;;
71626;SDS011;59475;52.464;13.590;2023-04-06T13:50:04;2.85;;;1.73;;
71626;SDS011;59475;52.464;13.590;2023-04-06T13:52:30;3.00;;;2.05;;
71626;SDS011;59475;52.464;13.590;2023-04-06T13:54:56;4.27;;;1.97;;
71626;SDS011;59475;52.464;13.590;2023-04-06T13:57:21;2.90;;;2.27;;
71626;SDS011;59475;52.464;13.590;2023-04-06T13:59:48;3.13;;;2.00;;
71626;SDS011;59475;52.464;13.590;2023-04-06T14:02:15;4.40;;;2.30;;
71626;SDS011;59475;52.464;13.590;2023-04-06T14:04:41;3.50;;;2.53;;
71626;SDS011;59475;52.464;13.590;2023-04-06T14:07:06;2.80;;;1.87;;
71626;SDS011;59475;52.464;13.590;2023-04-06T14:09:32;3.17;;;2.10;;
71626;SDS011;59475;52.464;13.590;2023-04-06T14:11:58;2.90;;;2.00;;
71626;SDS011;59475;52.464;13.590;2023-04-06T14:14:24;3.08;;;2.35;;
71626;SDS011;59475;52.464;13.590;2023-04-06T14:16:49;2.73;;;2.30;;
71626;SDS011;59475;52.464;13.590;2023-04-06T14:19:16;2.90;;;2.20;;
71626;SDS011;59475;52.464;13.590;2023-04-06T14:21:45;3.15;;;2.30;;
71626;SDS011;59475;52.464;13.590;2023-04-06T14:24:12;3.15;;;2.28;;
71626;SDS011;59475;52.464;13.590;2023-04-06T14:26:39;3.72;;;2.20;;
71626;SDS011;59475;52.464;13.590;2023-04-06T14:29:06;2.85;;;2.00;;
71626;SDS011;59475;52.464;13.590;2023-04-06T14:31:32;2.87;;;2.40;;